長崎空港の過去48時間の天気

長崎空港 (Nagasaki)

現在時刻: 6/3 21:58 JST (6/3 12:58 UTC) 以下の時間は現地時間です。

過去48時間のMETAR気象情報
時間 風向 風速(m/s) 視程 気温(℃) 湿度(%) 気圧(hPa) 天気現象
3 21:00 南南東 1 10km以上 22 88 1006 弱い雨
3 20:00 2 10km以上 22 88 1005
3 19:00 南南西 2 10km以上 22 88 1005 弱い雨
3 18:00 不定 1 10km以上 23 83 1005
3 17:00 南東 4 10km以上 23 89 1004
3 16:00 南東 6 10km以上 23 89 1004
3 15:00 南東 8 10km以上 23 94 1003 弱いしゅう雨
3 14:00 不定 1 10km以上 24 83 1005 弱いしゅう雨
3 13:00 東南東 3 10km以上 24 78 1005 弱いしゅう雨
3 12:00 東南東 3 10km以上 23 83 1006 弱いしゅう雨
3 11:00 南東 3 10km以上 23 83 1006 弱いしゅう雨
3 10:00 南東 5 10km以上 23 83 1006 弱いしゅう雨
3 09:00 南東 5 10km以上 23 83 1006
3 08:00 南南東 6 10km以上 22 88 1006
3 07:00 南東 5 10km以上 21 94 1005
3 06:10 南東 5 10km以上 21 94 1006
2 21:00 南南東 3 10km以上 21 83 1008
2 20:00 2 10km以上 22 78 1008
2 19:00 西 4 10km以上 23 78 1008
2 18:00 西 5 10km以上 24 74 1008
2 17:00 西 4 10km以上 24 69 1007
2 16:00 西 5 10km以上 25 65 1008
2 15:00 西 4 10km以上 26 54 1008
2 14:00 西 4 10km以上 26 54 1008
2 13:00 西 4 10km以上 26 58 1009
2 12:00 西 3 10km以上 25 65 1009
2 11:00 西南西 2 10km以上 24 69 1010
2 10:00 不定 1 10km以上 23 73 1010
2 09:00 不定 1 10km以上 22 73 1011
2 08:00 不定 1 10km以上 21 73 1011
2 07:00 南東 3 10km以上 19 94 1010
2 06:10 2 10km以上 18 88 1010
RJFU 031200Z 16002KT 9999 -RA FEW015 SCT100 BKN140 22/20 Q1006
RJFU 031100Z 19003KT 150V230 9999 FEW010 SCT120 BKN150 22/20 Q1005
RJFU 031000Z 20003KT 150V260 9999 -RA FEW010 SCT025 BKN040 22/20 Q1005
RJFU 030900Z VRB02KT 9999 FEW007 SCT020 BKN030 23/20 Q1005
RJFU 030800Z 13008KT 9999 FEW006 BKN010 BKN020 23/21 Q1004
RJFU 030700Z 13012KT 9999 FEW007 BKN015 BKN120 23/21 Q1004
RJFU 030600Z 14015KT 9999 -SHRA FEW007 BKN015 BKN100 23/22 Q1003
RJFU 030500Z VRB02KT 9999 -SHRA FEW007 BKN015 BKN090 24/21 Q1005
RJFU 030400Z 11005KT 9999 -SHRA FEW010 SCT020 BKN030 24/20 Q1005
RJFU 030300Z 12005KT 9999 -SHRA FEW007 BKN020 BKN030 23/20 Q1006
RJFU 030200Z 14006KT 9999 -SHRA FEW010 BKN020 BKN030 23/20 Q1006
RJFU 030100Z 14010KT 9999 -SHRA FEW015 BKN025 BKN045 23/20 Q1006
RJFU 030000Z 14009KT 9999 FEW010 BKN035 BKN045 23/20 Q1006
RJFU 022300Z 15011KT 9999 FEW010 SCT020 BKN040 22/20 Q1006
RJFU 022200Z 14009KT 9999 FEW010 BKN025 BKN050 21/20 Q1005
RJFU 022110Z 14009KT 9999 FEW008 BKN025 BKN050 21/20 Q1006 RMK 1ST008 6CU025 7SC050 A2971
RJFU 021200Z 15005KT 9999 FEW020 SCT/// 21/18 Q1008
RJFU 021100Z 19003KT 9999 FEW030 SCT/// 22/18 Q1008
RJFU 021000Z 26007KT 230V300 9999 FEW030 BKN/// 23/19 Q1008
RJFU 020900Z 26009KT 230V310 9999 FEW040 BKN/// 24/19 Q1008
RJFU 020800Z 27007KT 200V320 9999 FEW040 BKN/// 24/18 Q1007
RJFU 020700Z 26010KT 210V300 9999 FEW040 BKN/// 25/18 Q1008
RJFU 020600Z 27008KT 200V310 9999 FEW040 BKN/// 26/16 Q1008
RJFU 020500Z 27007KT 220V310 9999 FEW030 BKN/// 26/16 Q1008
RJFU 020400Z 26007KT 210V300 9999 FEW030 BKN/// 26/17 Q1009
RJFU 020300Z 27005KT 230V320 9999 FEW030 BKN/// 25/18 Q1009
RJFU 020200Z 24004KT 180V310 9999 FEW025 BKN/// 24/18 Q1010
RJFU 020100Z VRB02KT 9999 FEW040 BKN/// 23/18 Q1010
RJFU 020000Z VRB02KT 9999 FEW020 BKN/// 22/17 Q1011
RJFU 012300Z VRB02KT 9999 FEW015 BKN/// 21/16 Q1011
RJFU 012200Z 13006KT 9999 FEW015 BKN/// 19/18 Q1010
RJFU 012110Z 10004KT 070V130 9999 FEW020 BKN/// 18/16 Q1010 RMK 1CU020 A2984